AXM110 LEPA-LEBL
Flight info
| Callsign | AXM110 |
|---|---|
| Flight time | 0h 37m |
| Altitude | 16000 |
| Route | ESPOR4A ESPOR L2 NEPAL NEPAL3E |
| Aircraft | A333/H-V/N |
Departure
| Time | 2026-05-05 11:57 |
|---|---|
| Airport | Palma de Mallorca Airport (LEPA) |
Arrival
| Time | 2026-05-05 12:34 |
|---|---|
| Airport | Josep Tarradellas Barcelona-El Prat Airport (LEBL) |
| Time | Latitude | Longitude | Altitude | Speed | Heading |
|---|---|---|---|---|---|
| 2026-05-05 11:34 | 39.55090 | 2.72836 | 20 ft | 0 kts | 184° |
| 2026-05-05 11:46 | 39.55092 | 2.72836 | 20 ft | 0 kts | 184° |
| 2026-05-05 11:46 | 39.55098 | 2.72836 | 20 ft | 1 kts | 183° |
| 2026-05-05 11:47 | 39.55116 | 2.72837 | 19 ft | 3 kts | 183° |
| 2026-05-05 11:47 | 39.55139 | 2.72838 | 18 ft | 1 kts | 182° |
| 2026-05-05 11:48 | 39.55138 | 2.72838 | 18 ft | 0 kts | 182° |
| 2026-05-05 11:48 | 39.55136 | 2.72838 | 18 ft | 0 kts | 182° |
| 2026-05-05 11:48 | 39.55135 | 2.72838 | 18 ft | 0 kts | 181° |
| 2026-05-05 11:49 | 39.55133 | 2.72838 | 18 ft | 0 kts | 181° |
| 2026-05-05 11:49 | 39.55154 | 2.72838 | 19 ft | 3 kts | 181° |
| 2026-05-05 11:50 | 39.55167 | 2.72838 | 19 ft | 1 kts | 178° |
| 2026-05-05 11:50 | 39.55177 | 2.72837 | 19 ft | 1 kts | 168° |
| 2026-05-05 11:50 | 39.55186 | 2.72833 | 18 ft | 1 kts | 152° |
| 2026-05-05 11:50 | 39.55193 | 2.72827 | 17 ft | 1 kts | 137° |
| 2026-05-05 11:51 | 39.55198 | 2.72820 | 17 ft | 1 kts | 123° |
| 2026-05-05 11:51 | 39.55202 | 2.72811 | 15 ft | 1 kts | 110° |
| 2026-05-05 11:51 | 39.55205 | 2.72801 | 14 ft | 0 kts | 96° |
| 2026-05-05 11:51 | 39.55205 | 2.72794 | 13 ft | 0 kts | 96° |
| 2026-05-05 11:53 | 39.55206 | 2.72789 | 13 ft | 1 kts | 96° |
| 2026-05-05 11:53 | 39.55203 | 2.72817 | 16 ft | 2 kts | 96° |
| 2026-05-05 11:53 | 39.55203 | 2.72823 | 17 ft | 1 kts | 97° |
| 2026-05-05 11:53 | 39.55199 | 2.72864 | 21 ft | 8 kts | 97° |
| 2026-05-05 11:54 | 39.55222 | 2.72984 | 24 ft | 8 kts | 63° |
| 2026-05-05 11:54 | 39.55313 | 2.73019 | 22 ft | 23 kts | 339° |
| 2026-05-05 11:54 | 39.55455 | 2.73082 | 24 ft | 27 kts | 59° |
| 2026-05-05 11:54 | 39.55545 | 2.73273 | 28 ft | 29 kts | 58° |
| 2026-05-05 11:55 | 39.55666 | 2.73530 | 28 ft | 38 kts | 58° |
| 2026-05-05 11:55 | 39.55828 | 2.73869 | 23 ft | 48 kts | 59° |
| 2026-05-05 11:55 | 39.55991 | 2.74219 | 30 ft | 39 kts | 59° |
| 2026-05-05 11:55 | 39.56126 | 2.74447 | 26 ft | 25 kts | 16° |
| 2026-05-05 11:56 | 39.56243 | 2.74323 | 26 ft | 22 kts | 262° |
| 2026-05-05 11:56 | 39.56173 | 2.74151 | 28 ft | 21 kts | 237° |
| 2026-05-05 11:56 | 39.56016 | 2.73827 | 24 ft | 76 kts | 238° |
| 2026-05-05 11:56 | 39.55618 | 2.72984 | 24 ft | 140 kts | 239° |
| 2026-05-05 11:57 | 39.55044 | 2.71734 | 218 ft | 174 kts | 239° |
| 2026-05-05 11:57 | 39.54445 | 2.70403 | 947 ft | 176 kts | 237° |
| 2026-05-05 11:57 | 39.53767 | 2.69022 | 1566 ft | 188 kts | 233° |
| 2026-05-05 11:57 | 39.53007 | 2.67668 | 2099 ft | 191 kts | 234° |
| 2026-05-05 11:58 | 39.52282 | 2.66172 | 2509 ft | 201 kts | 233° |
| 2026-05-05 11:58 | 39.51446 | 2.64650 | 2987 ft | 215 kts | 233° |
| 2026-05-05 11:58 | 39.50578 | 2.63038 | 3662 ft | 221 kts | 237° |
| 2026-05-05 11:58 | 39.49774 | 2.61440 | 4620 ft | 211 kts | 237° |
| 2026-05-05 11:59 | 39.48980 | 2.59861 | 5339 ft | 213 kts | 237° |
| 2026-05-05 11:59 | 39.48714 | 2.59331 | 5564 ft | 214 kts | 237° |
| 2026-05-05 11:59 | 39.48506 | 2.58918 | 5741 ft | 215 kts | 237° |
| 2026-05-05 12:00 | 39.47699 | 2.57309 | 6453 ft | 216 kts | 237° |
| 2026-05-05 12:00 | 39.46889 | 2.55693 | 7185 ft | 216 kts | 237° |
| 2026-05-05 12:00 | 39.46077 | 2.54074 | 7892 ft | 217 kts | 237° |
| 2026-05-05 12:00 | 39.45269 | 2.52438 | 8578 ft | 219 kts | 242° |
| 2026-05-05 12:01 | 39.44918 | 2.50453 | 8945 ft | 241 kts | 272° |
| 2026-05-05 12:01 | 39.45470 | 2.48331 | 9343 ft | 265 kts | 300° |
| 2026-05-05 12:01 | 39.46858 | 2.46646 | 9743 ft | 291 kts | 327° |
| 2026-05-05 12:01 | 39.48710 | 2.45481 | 10354 ft | 298 kts | 325° |
| 2026-05-05 12:02 | 39.50454 | 2.43937 | 10767 ft | 313 kts | 320° |
| 2026-05-05 12:02 | 39.52264 | 2.42207 | 11111 ft | 331 kts | 319° |
| 2026-05-05 12:02 | 39.54129 | 2.40394 | 11599 ft | 343 kts | 320° |
| 2026-05-05 12:02 | 39.56279 | 2.39012 | 12335 ft | 355 kts | 338° |
| 2026-05-05 12:03 | 39.58670 | 2.38077 | 13100 ft | 358 kts | 338° |
| 2026-05-05 12:03 | 39.61053 | 2.37114 | 13764 ft | 364 kts | 338° |
| 2026-05-05 12:03 | 39.63462 | 2.36137 | 14468 ft | 367 kts | 337° |
| 2026-05-05 12:03 | 39.65916 | 2.35141 | 15196 ft | 370 kts | 337° |
| 2026-05-05 12:04 | 39.68357 | 2.34151 | 15902 ft | 370 kts | 336° |
| 2026-05-05 12:04 | 39.70877 | 2.33123 | 15905 ft | 375 kts | 336° |
| 2026-05-05 12:04 | 39.73357 | 2.32116 | 15897 ft | 367 kts | 336° |
| 2026-05-05 12:04 | 39.75790 | 2.31123 | 15950 ft | 367 kts | 336° |
| 2026-05-05 12:05 | 39.78206 | 2.30140 | 15925 ft | 365 kts | 336° |
| 2026-05-05 12:05 | 39.80655 | 2.29140 | 15932 ft | 367 kts | 336° |
| 2026-05-05 12:05 | 39.83066 | 2.28156 | 15930 ft | 367 kts | 336° |
| 2026-05-05 12:05 | 39.85502 | 2.27161 | 15928 ft | 367 kts | 336° |
| 2026-05-05 12:06 | 39.87963 | 2.26156 | 15934 ft | 366 kts | 336° |
| 2026-05-05 12:06 | 39.90385 | 2.25166 | 15927 ft | 367 kts | 336° |
| 2026-05-05 12:06 | 39.92812 | 2.24174 | 15931 ft | 366 kts | 336° |
| 2026-05-05 12:06 | 39.95262 | 2.23169 | 15933 ft | 368 kts | 336° |
| 2026-05-05 12:07 | 39.97696 | 2.22173 | 15926 ft | 368 kts | 336° |
| 2026-05-05 12:07 | 40.00154 | 2.21165 | 15926 ft | 366 kts | 336° |
| 2026-05-05 12:07 | 40.02586 | 2.20165 | 15929 ft | 368 kts | 336° |
| 2026-05-05 12:07 | 40.05015 | 2.19167 | 15914 ft | 366 kts | 336° |
| 2026-05-05 12:08 | 40.07442 | 2.18168 | 15915 ft | 365 kts | 336° |
| 2026-05-05 12:08 | 40.09864 | 2.17172 | 15910 ft | 366 kts | 336° |
| 2026-05-05 12:08 | 40.12324 | 2.16159 | 15904 ft | 366 kts | 336° |
| 2026-05-05 12:08 | 40.14783 | 2.15145 | 15901 ft | 368 kts | 336° |
| 2026-05-05 12:09 | 40.17281 | 2.14115 | 15908 ft | 367 kts | 336° |
| 2026-05-05 12:09 | 40.19730 | 2.13106 | 15902 ft | 367 kts | 336° |
| 2026-05-05 12:09 | 40.22207 | 2.12082 | 15908 ft | 368 kts | 336° |
| 2026-05-05 12:09 | 40.24651 | 2.11071 | 15901 ft | 367 kts | 336° |
| 2026-05-05 12:10 | 40.27094 | 2.10061 | 15906 ft | 367 kts | 336° |
| 2026-05-05 12:10 | 40.29519 | 2.09056 | 15904 ft | 368 kts | 336° |
| 2026-05-05 12:10 | 40.31977 | 2.08039 | 15905 ft | 368 kts | 336° |
| 2026-05-05 12:10 | 40.34394 | 2.07037 | 15904 ft | 369 kts | 336° |
| 2026-05-05 12:11 | 40.36859 | 2.06014 | 15905 ft | 368 kts | 336° |
| 2026-05-05 12:11 | 40.39291 | 2.05003 | 15903 ft | 369 kts | 336° |
| 2026-05-05 12:11 | 40.41724 | 2.03992 | 15904 ft | 367 kts | 336° |
| 2026-05-05 12:11 | 40.44178 | 2.02972 | 15906 ft | 368 kts | 336° |
| 2026-05-05 12:12 | 40.46608 | 2.01959 | 15908 ft | 369 kts | 336° |
| 2026-05-05 12:12 | 40.49063 | 2.00938 | 15902 ft | 369 kts | 336° |
| 2026-05-05 12:12 | 40.51510 | 1.99917 | 15911 ft | 370 kts | 336° |
| 2026-05-05 12:12 | 40.53943 | 1.98902 | 15918 ft | 369 kts | 336° |
| 2026-05-05 12:13 | 40.56396 | 1.97878 | 15918 ft | 370 kts | 336° |
| 2026-05-05 12:13 | 40.58854 | 1.96851 | 15650 ft | 374 kts | 336° |
| 2026-05-05 12:13 | 40.61329 | 1.95813 | 15123 ft | 373 kts | 337° |
| 2026-05-05 12:13 | 40.63786 | 1.94787 | 14660 ft | 369 kts | 337° |
| 2026-05-05 12:14 | 40.66216 | 1.93769 | 14189 ft | 366 kts | 337° |
| 2026-05-05 12:14 | 40.68540 | 1.92603 | 14031 ft | 345 kts | 325° |
| 2026-05-05 12:14 | 40.70326 | 1.90702 | 13768 ft | 326 kts | 306° |
| 2026-05-05 12:14 | 40.71766 | 1.88395 | 13285 ft | 324 kts | 304° |
| 2026-05-05 12:15 | 40.73185 | 1.86100 | 12838 ft | 323 kts | 304° |
| 2026-05-05 12:15 | 40.74597 | 1.83804 | 12399 ft | 321 kts | 304° |
| 2026-05-05 12:15 | 40.75995 | 1.81521 | 11971 ft | 320 kts | 304° |
| 2026-05-05 12:15 | 40.77375 | 1.79265 | 11560 ft | 318 kts | 304° |
| 2026-05-05 12:16 | 40.78762 | 1.76998 | 11164 ft | 315 kts | 304° |
| 2026-05-05 12:16 | 40.80122 | 1.74770 | 10787 ft | 312 kts | 304° |
| 2026-05-05 12:16 | 40.81461 | 1.72576 | 10431 ft | 308 kts | 305° |
| 2026-05-05 12:16 | 40.82798 | 1.70382 | 10170 ft | 301 kts | 305° |
| 2026-05-05 12:17 | 40.84096 | 1.68257 | 10122 ft | 290 kts | 305° |
| 2026-05-05 12:17 | 40.85360 | 1.66275 | 10013 ft | 283 kts | 313° |
| 2026-05-05 12:17 | 40.87041 | 1.64985 | 9917 ft | 282 kts | 340° |
| 2026-05-05 12:17 | 40.88994 | 1.64836 | 9865 ft | 278 kts | 8° |
| 2026-05-05 12:18 | 40.90763 | 1.65787 | 9899 ft | 278 kts | 27° |
| 2026-05-05 12:18 | 40.92475 | 1.67016 | 9903 ft | 279 kts | 26° |
| 2026-05-05 12:18 | 40.94165 | 1.68233 | 9905 ft | 278 kts | 27° |
| 2026-05-05 12:18 | 40.95875 | 1.69479 | 9794 ft | 280 kts | 27° |
| 2026-05-05 12:19 | 40.97476 | 1.70904 | 9512 ft | 281 kts | 46° |
| 2026-05-05 12:19 | 40.98620 | 1.72999 | 9276 ft | 279 kts | 58° |
| 2026-05-05 12:19 | 40.99675 | 1.75122 | 9025 ft | 278 kts | 57° |
| 2026-05-05 12:19 | 41.00736 | 1.77238 | 8777 ft | 276 kts | 57° |
| 2026-05-05 12:20 | 41.01802 | 1.79364 | 8532 ft | 274 kts | 57° |
| 2026-05-05 12:20 | 41.02842 | 1.81438 | 8286 ft | 272 kts | 57° |
| 2026-05-05 12:20 | 41.03886 | 1.83523 | 8063 ft | 269 kts | 57° |
| 2026-05-05 12:20 | 41.04946 | 1.85552 | 7989 ft | 266 kts | 48° |
| 2026-05-05 12:21 | 41.06401 | 1.86916 | 7928 ft | 255 kts | 17° |
| 2026-05-05 12:21 | 41.08098 | 1.87184 | 7894 ft | 244 kts | 347° |
| 2026-05-05 12:21 | 41.09695 | 1.86462 | 7939 ft | 239 kts | 333° |
| 2026-05-05 12:21 | 41.11241 | 1.85577 | 7913 ft | 239 kts | 330° |
| 2026-05-05 12:22 | 41.12486 | 1.84154 | 7921 ft | 233 kts | 297° |
| 2026-05-05 12:22 | 41.12929 | 1.82099 | 7940 ft | 225 kts | 265° |
| 2026-05-05 12:22 | 41.12529 | 1.80087 | 7974 ft | 220 kts | 247° |
| 2026-05-05 12:22 | 41.11934 | 1.78148 | 7965 ft | 227 kts | 246° |
| 2026-05-05 12:23 | 41.11298 | 1.76218 | 7930 ft | 220 kts | 245° |
| 2026-05-05 12:23 | 41.10661 | 1.74343 | 7931 ft | 225 kts | 245° |
| 2026-05-05 12:23 | 41.10015 | 1.72459 | 7914 ft | 221 kts | 245° |
| 2026-05-05 12:23 | 41.09375 | 1.70600 | 7913 ft | 224 kts | 245° |
| 2026-05-05 12:24 | 41.08740 | 1.68758 | 7881 ft | 222 kts | 245° |
| 2026-05-05 12:24 | 41.08082 | 1.66851 | 7838 ft | 225 kts | 245° |
| 2026-05-05 12:24 | 41.07440 | 1.64990 | 7692 ft | 223 kts | 245° |
| 2026-05-05 12:24 | 41.06795 | 1.63124 | 7444 ft | 226 kts | 245° |
| 2026-05-05 12:25 | 41.06138 | 1.61221 | 7208 ft | 225 kts | 245° |
| 2026-05-05 12:25 | 41.05499 | 1.59346 | 6989 ft | 224 kts | 249° |
| 2026-05-05 12:25 | 41.05277 | 1.57336 | 6886 ft | 225 kts | 275° |
| 2026-05-05 12:25 | 41.05757 | 1.55352 | 6773 ft | 230 kts | 300° |
| 2026-05-05 12:26 | 41.06883 | 1.53849 | 6705 ft | 232 kts | 327° |
| 2026-05-05 12:26 | 41.08425 | 1.53184 | 6687 ft | 238 kts | 355° |
| 2026-05-05 12:26 | 41.10038 | 1.53567 | 6617 ft | 234 kts | 27° |
| 2026-05-05 12:26 | 41.11235 | 1.55013 | 6622 ft | 245 kts | 58° |
| 2026-05-05 12:27 | 41.12064 | 1.56993 | 6540 ft | 252 kts | 64° |
| 2026-05-05 12:27 | 41.12848 | 1.59101 | 6323 ft | 252 kts | 65° |
| 2026-05-05 12:27 | 41.13586 | 1.61177 | 6119 ft | 250 kts | 65° |
| 2026-05-05 12:27 | 41.14321 | 1.63276 | 5901 ft | 249 kts | 66° |
| 2026-05-05 12:28 | 41.15044 | 1.65350 | 5683 ft | 247 kts | 66° |
| 2026-05-05 12:28 | 41.15762 | 1.67415 | 5455 ft | 246 kts | 66° |
| 2026-05-05 12:28 | 41.16474 | 1.69464 | 5224 ft | 245 kts | 66° |
| 2026-05-05 12:28 | 41.17183 | 1.71507 | 5001 ft | 244 kts | 66° |
| 2026-05-05 12:29 | 41.17887 | 1.73538 | 4771 ft | 244 kts | 66° |
| 2026-05-05 12:29 | 41.18601 | 1.75592 | 4528 ft | 244 kts | 66° |
| 2026-05-05 12:29 | 41.19305 | 1.77629 | 4280 ft | 244 kts | 66° |
| 2026-05-05 12:29 | 41.20016 | 1.79685 | 4126 ft | 239 kts | 66° |
| 2026-05-05 12:30 | 41.20700 | 1.81662 | 4072 ft | 239 kts | 66° |
| 2026-05-05 12:30 | 41.21401 | 1.83678 | 3826 ft | 243 kts | 66° |
| 2026-05-05 12:30 | 41.22105 | 1.85728 | 3514 ft | 246 kts | 67° |
| 2026-05-05 12:30 | 41.22812 | 1.87837 | 3142 ft | 247 kts | 66° |
| 2026-05-05 12:31 | 41.23508 | 1.89869 | 2803 ft | 238 kts | 66° |
| 2026-05-05 12:31 | 41.24179 | 1.91816 | 2486 ft | 227 kts | 66° |
| 2026-05-05 12:31 | 41.24818 | 1.93669 | 2176 ft | 213 kts | 66° |
| 2026-05-05 12:31 | 41.25411 | 1.95383 | 1882 ft | 193 kts | 66° |
| 2026-05-05 12:32 | 41.25951 | 1.96948 | 1685 ft | 176 kts | 66° |
| 2026-05-05 12:32 | 41.26429 | 1.98329 | 1533 ft | 155 kts | 66° |
| 2026-05-05 12:32 | 41.26868 | 1.99607 | 1277 ft | 150 kts | 67° |
| 2026-05-05 12:32 | 41.27296 | 2.00848 | 1070 ft | 145 kts | 67° |
| 2026-05-05 12:33 | 41.27717 | 2.02071 | 872 ft | 144 kts | 68° |
| 2026-05-05 12:33 | 41.28130 | 2.03271 | 685 ft | 142 kts | 67° |
| 2026-05-05 12:33 | 41.28550 | 2.04495 | 484 ft | 144 kts | 68° |
| 2026-05-05 12:33 | 41.28968 | 2.05704 | 277 ft | 144 kts | 71° |
| 2026-05-05 12:34 | 41.29393 | 2.06927 | 88 ft | 143 kts | 71° |
| 2026-05-05 12:34 | 41.29788 | 2.08087 | 27 ft | 124 kts | 66° |
| 2026-05-05 12:34 | 41.30073 | 2.08914 | 24 ft | 70 kts | 66° |
| 2026-05-05 12:34 | 41.30210 | 2.09296 | 22 ft | 31 kts | 59° |
| 2026-05-05 12:35 | 41.30369 | 2.09510 | 22 ft | 33 kts | 31° |
| 2026-05-05 12:35 | 41.30483 | 2.09382 | 23 ft | 28 kts | 244° |
| 2026-05-05 12:35 | 41.30401 | 2.09149 | 23 ft | 27 kts | 246° |
| 2026-05-05 12:35 | 41.30358 | 2.08916 | 25 ft | 29 kts | 288° |
| 2026-05-05 12:36 | 41.30325 | 2.08628 | 27 ft | 34 kts | 289° |
| 2026-05-05 12:36 | 41.30279 | 2.08377 | 29 ft | 22 kts | 241° |
| 2026-05-05 12:36 | 41.30206 | 2.08166 | 30 ft | 20 kts | 245° |
| 2026-05-05 12:36 | 41.30141 | 2.07983 | 30 ft | 17 kts | 245° |
| 2026-05-05 12:37 | 41.30093 | 2.07840 | 30 ft | 20 kts | 242° |
| 2026-05-05 12:37 | 41.30047 | 2.07673 | 29 ft | 15 kts | 276° |
| 2026-05-05 12:37 | 41.30088 | 2.07563 | 30 ft | 0 kts | 304° |
| 2026-05-05 12:37 | 41.30094 | 2.07552 | 30 ft | 0 kts | 304° |
| 2026-05-05 12:38 | 41.30096 | 2.07550 | 30 ft | 1 kts | 304° |
| 2026-05-05 12:38 | 41.30097 | 2.07547 | 30 ft | 0 kts | 304° |